createdAt,value
2023-05-15T00:01:18.813Z,6.70
2023-05-15T00:06:21.413Z,5.83
2023-05-15T00:11:24.007Z,9.17
2023-05-15T00:16:26.483Z,10.93
2023-05-15T00:21:29.082Z,11.93
2023-05-15T00:26:31.508Z,12.00
2023-05-15T00:31:34.016Z,8.93
2023-05-15T00:36:36.547Z,8.47
2023-05-15T00:41:39.576Z,8.50
2023-05-15T00:46:42.627Z,7.20
2023-05-15T00:51:45.089Z,7.80
2023-05-15T00:56:48.570Z,8.07
2023-05-15T01:01:52.330Z,8.97
2023-05-15T01:06:54.849Z,9.20
2023-05-15T01:11:58.159Z,8.33
2023-05-15T01:17:01.534Z,6.97
2023-05-15T01:22:22.420Z,7.57
2023-05-15T01:27:36.309Z,4.87
2023-05-15T01:32:56.221Z,5.27
2023-05-15T01:43:10.124Z,5.20
2023-05-15T01:48:13.320Z,5.43
2023-05-15T01:53:16.009Z,5.17
2023-05-15T01:58:19.092Z,5.60
2023-05-15T02:03:22.912Z,5.80
2023-05-15T02:08:26.470Z,5.60
2023-05-15T02:13:29.558Z,7.07
2023-05-15T02:18:32.077Z,4.90
2023-05-15T02:23:54.518Z,5.20
2023-05-15T02:29:30.937Z,5.90
2023-05-15T02:34:53.859Z,5.40
2023-05-15T02:40:00.194Z,5.83
2023-05-15T02:45:03.754Z,7.50
2023-05-15T02:50:07.787Z,6.40
2023-05-15T02:55:10.827Z,5.87
2023-05-15T03:00:14.053Z,6.00
2023-05-15T03:05:16.790Z,5.83
2023-05-15T03:10:19.312Z,6.23
2023-05-15T03:15:22.460Z,6.67
2023-05-15T03:20:25.218Z,7.43
2023-05-15T03:25:28.006Z,6.80
2023-05-15T03:30:30.699Z,6.93
2023-05-15T03:35:34.218Z,6.40
2023-05-15T03:40:41.379Z,6.60
2023-05-15T03:45:44.369Z,6.63
2023-05-15T03:50:46.940Z,6.43
2023-05-15T03:55:49.608Z,4.80
2023-05-15T04:00:52.145Z,4.13
2023-05-15T04:05:54.695Z,4.87
2023-05-15T04:10:57.247Z,5.13
2023-05-15T04:16:01.306Z,2.73
2023-05-15T04:21:04.115Z,2.93
2023-05-15T04:26:06.594Z,2.10
2023-05-15T04:31:09.188Z,2.80
2023-05-15T04:36:11.809Z,2.10
2023-05-15T04:41:14.403Z,2.47
2023-05-15T04:46:17.071Z,2.10
2023-05-15T04:51:19.614Z,2.10
2023-05-15T04:56:22.076Z,1.87
2023-05-15T05:01:24.589Z,1.57
2023-05-15T05:06:28.608Z,1.53
2023-05-15T05:11:32.312Z,1.53
2023-05-15T05:16:35.108Z,1.93
2023-05-15T05:21:37.628Z,1.57
2023-05-15T05:26:40.068Z,1.83
2023-05-15T05:31:42.594Z,2.10
2023-05-15T05:36:45.084Z,2.30
2023-05-15T05:41:47.550Z,2.27
2023-05-15T05:46:49.999Z,4.53
2023-05-15T05:51:53.042Z,1.80
2023-05-15T05:56:55.475Z,1.60
2023-05-15T06:01:58.244Z,1.60
2023-05-15T06:07:00.692Z,1.40
2023-05-15T06:12:05.466Z,2.10
2023-05-15T06:17:08.311Z,1.13
2023-05-15T06:22:10.906Z,1.27
2023-05-15T06:27:13.340Z,1.00
2023-05-15T06:32:15.820Z,1.20
2023-05-15T06:37:21.701Z,1.07
2023-05-15T06:42:24.106Z,1.20
2023-05-15T06:47:26.655Z,1.23
2023-05-15T06:52:29.758Z,1.17
2023-05-15T06:57:33.794Z,1.37
2023-05-15T07:02:36.348Z,1.40
2023-05-15T07:07:38.904Z,1.60
2023-05-15T07:12:41.591Z,1.50
2023-05-15T07:17:44.220Z,1.20
2023-05-15T07:22:55.822Z,1.40
2023-05-15T07:27:59.679Z,1.30
2023-05-15T07:33:02.186Z,1.40
2023-05-15T07:38:05.016Z,1.20
2023-05-15T07:43:07.599Z,2.07
2023-05-15T07:48:17.504Z,1.83
2023-05-15T07:53:23.083Z,1.60
2023-05-15T07:58:26.615Z,1.30
2023-05-15T08:03:29.501Z,1.50
2023-05-15T08:08:32.109Z,1.57
2023-05-15T08:13:34.725Z,2.07
2023-05-15T08:18:37.733Z,2.10
2023-05-15T08:23:40.242Z,1.73
2023-05-15T08:28:42.969Z,1.83
2023-05-15T08:33:46.948Z,1.70
2023-05-15T08:38:49.436Z,1.43
2023-05-15T08:43:53.571Z,1.60
2023-05-15T08:48:56.998Z,1.40
2023-05-15T08:53:59.876Z,1.67
2023-05-15T08:59:02.476Z,1.90
2023-05-15T09:04:05.461Z,1.40
2023-05-15T09:09:13.377Z,2.57
2023-05-15T09:14:15.862Z,1.93
2023-05-15T09:19:23.425Z,2.13
2023-05-15T09:24:28.663Z,1.50
2023-05-15T09:29:32.151Z,1.60
2023-05-15T09:34:39.315Z,1.60
2023-05-15T09:39:43.330Z,2.50
2023-05-15T09:44:46.779Z,1.60
2023-05-15T09:49:49.244Z,1.60
2023-05-15T09:54:52.629Z,1.63
2023-05-15T09:59:55.366Z,1.30
2023-05-15T10:05:00.174Z,1.43
2023-05-15T10:10:04.496Z,1.23
2023-05-15T10:15:09.556Z,1.20
2023-05-15T10:20:12.876Z,1.33
2023-05-15T10:25:36.656Z,1.30
2023-05-15T10:30:39.551Z,1.27
2023-05-15T10:35:43.126Z,2.03
2023-05-15T10:40:45.674Z,1.43
2023-05-15T10:45:48.270Z,1.27
2023-05-15T10:50:51.340Z,1.60
2023-05-15T10:55:54.086Z,1.67
2023-05-15T11:00:56.588Z,1.60
2023-05-15T11:06:13.125Z,1.60
2023-05-15T11:11:56.241Z,1.42
2023-05-15T11:17:00.884Z,1.70
2023-05-15T11:22:09.653Z,1.65
2023-05-15T11:32:43.888Z,1.83
2023-05-15T11:37:48.160Z,1.60
2023-05-15T11:43:20.343Z,1.83
2023-05-15T11:48:24.523Z,2.45
2023-05-15T11:53:27.416Z,1.90
2023-05-15T11:58:30.044Z,2.58
2023-05-15T12:03:38.944Z,1.70
2023-05-15T12:08:42.596Z,1.80
2023-05-15T12:13:45.106Z,1.80
2023-05-15T12:18:48.059Z,2.08
2023-05-15T12:28:58.815Z,1.80
2023-05-15T12:34:01.492Z,2.13
2023-05-15T12:39:08.466Z,1.70
2023-05-15T12:44:20.766Z,1.90
2023-05-15T12:49:23.579Z,1.60
2023-05-15T12:54:26.704Z,1.50
2023-05-15T12:59:29.723Z,2.40
2023-05-15T13:04:35.440Z,1.70
2023-05-15T13:09:38.160Z,1.77
2023-05-15T13:14:42.974Z,1.70
2023-05-15T13:19:45.464Z,1.70
2023-05-15T13:24:47.962Z,1.70
2023-05-15T13:29:50.449Z,1.30
2023-05-15T13:34:55.091Z,2.22
2023-05-15T13:39:57.520Z,1.73
2023-05-15T13:45:00.024Z,1.63
2023-05-15T13:50:15.867Z,1.92
2023-05-15T13:55:18.944Z,1.70
2023-05-15T14:00:23.947Z,9.20
2023-05-15T14:05:28.107Z,2.33
2023-05-15T14:10:30.768Z,1.67
2023-05-15T14:15:34.005Z,1.90
2023-05-15T14:20:36.727Z,1.88
2023-05-15T14:25:39.296Z,1.38
2023-05-15T14:30:41.961Z,1.65
2023-05-15T14:35:44.464Z,2.17
2023-05-15T14:40:46.998Z,1.60
2023-05-15T14:45:49.485Z,1.83
2023-05-15T14:50:52.057Z,2.13
2023-05-15T14:55:58.931Z,1.50
2023-05-15T15:01:01.448Z,1.65
2023-05-15T15:06:04.512Z,1.77
2023-05-15T15:11:08.148Z,1.80
2023-05-15T15:16:10.885Z,1.65
2023-05-15T15:21:13.605Z,1.67
2023-05-15T15:26:16.141Z,1.63
2023-05-15T15:31:19.085Z,2.22
2023-05-15T15:36:22.201Z,1.30
2023-05-15T15:41:24.807Z,1.77
2023-05-15T15:46:27.582Z,1.50
2023-05-15T15:51:30.257Z,2.37
2023-05-15T15:56:32.832Z,1.67
2023-05-15T16:01:35.397Z,2.13
2023-05-15T16:06:38.981Z,1.47
2023-05-15T16:11:41.423Z,1.73
2023-05-15T16:16:43.921Z,3.97
2023-05-15T16:21:47.954Z,7.93
2023-05-15T16:26:51.687Z,5.00
2023-05-15T16:31:54.375Z,3.90
2023-05-15T16:36:57.530Z,4.20
2023-05-15T16:42:00.645Z,3.30
2023-05-15T16:47:03.502Z,4.47
2023-05-15T16:52:06.775Z,5.73
2023-05-15T16:57:09.264Z,6.17
2023-05-15T17:02:11.822Z,4.87
2023-05-15T17:07:14.413Z,5.70
2023-05-15T17:12:17.224Z,5.00
2023-05-15T17:17:19.775Z,6.50
2023-05-15T17:22:23.210Z,5.73
2023-05-15T17:27:25.859Z,5.30
2023-05-15T17:32:28.528Z,5.90
2023-05-15T17:37:31.229Z,4.60
2023-05-15T17:42:33.745Z,5.23
2023-05-15T17:47:36.325Z,6.83
2023-05-15T17:52:38.944Z,8.63
2023-05-15T17:57:41.683Z,8.37
2023-05-15T18:02:44.216Z,11.97
2023-05-15T18:07:48.590Z,10.00
2023-05-15T18:12:51.233Z,11.37
2023-05-15T18:17:53.795Z,9.50
2023-05-15T18:22:56.331Z,7.73
2023-05-15T18:27:59.017Z,6.23
2023-05-15T18:33:01.839Z,7.47
2023-05-15T18:38:04.634Z,7.20
2023-05-15T18:43:08.497Z,7.97
2023-05-15T18:48:11.086Z,7.57
2023-05-15T18:53:13.797Z,5.93
2023-05-15T18:58:16.788Z,7.53
2023-05-15T19:03:21.167Z,7.43
2023-05-15T19:08:23.939Z,8.97
2023-05-15T19:13:30.159Z,10.17
2023-05-15T19:18:32.784Z,9.03
2023-05-15T19:23:35.542Z,7.50
2023-05-15T19:28:38.161Z,6.00
2023-05-15T19:33:43.352Z,6.57
2023-05-15T19:38:46.116Z,5.60
2023-05-15T19:43:50.986Z,8.20
2023-05-15T19:48:54.446Z,6.60
2023-05-15T19:53:57.097Z,6.00
2023-05-15T19:59:00.880Z,6.63
2023-05-15T20:04:03.710Z,5.83
2023-05-15T20:09:06.462Z,6.23
2023-05-15T20:14:09.057Z,6.07
2023-05-15T20:19:17.052Z,5.67
2023-05-15T20:24:19.913Z,5.87
2023-05-15T20:29:23.211Z,8.13
2023-05-15T20:34:25.797Z,6.20
2023-05-15T20:39:28.306Z,6.97
2023-05-15T20:44:31.063Z,6.40
2023-05-15T20:49:33.599Z,5.87
2023-05-15T20:54:36.155Z,5.30
2023-05-15T20:59:38.660Z,4.93
2023-05-15T21:04:41.603Z,5.10
2023-05-15T21:09:44.245Z,5.73
2023-05-15T21:14:47.077Z,5.93
2023-05-15T21:19:49.959Z,6.10
2023-05-15T21:24:52.710Z,6.50
2023-05-15T21:29:55.382Z,5.07
2023-05-15T21:34:57.831Z,5.77
2023-05-15T21:40:00.553Z,5.20
2023-05-15T21:45:07.127Z,6.40
2023-05-15T21:50:09.969Z,4.90
2023-05-15T21:55:12.387Z,4.83
2023-05-15T22:00:16.559Z,5.80
2023-05-15T22:05:19.142Z,4.57
2023-05-15T22:10:22.680Z,6.70
2023-05-15T22:15:25.190Z,6.17
2023-05-15T22:20:29.503Z,6.60
2023-05-15T22:25:32.182Z,5.10
2023-05-15T22:30:35.465Z,5.57
2023-05-15T22:35:38.299Z,5.90
2023-05-15T22:40:40.969Z,5.43
2023-05-15T22:45:43.731Z,4.53
2023-05-15T22:50:46.453Z,6.33
2023-05-15T22:55:49.147Z,4.60
2023-05-15T23:00:52.146Z,5.03
2023-05-15T23:05:55.185Z,4.67
2023-05-15T23:10:57.905Z,5.10
2023-05-15T23:16:00.758Z,4.50
2023-05-15T23:21:05.112Z,3.60
2023-05-15T23:26:08.076Z,3.57
2023-05-15T23:31:13.428Z,3.50
2023-05-15T23:36:16.469Z,3.33
2023-05-15T23:41:19.598Z,3.40
2023-05-15T23:46:22.656Z,3.67
2023-05-15T23:51:25.345Z,4.77
2023-05-15T23:56:27.769Z,4.10
